sensor_id;sensor_type;location;lat;lon;timestamp;pressure;altitude;pressure_sealevel;temperature;humidity
49473;BME280;67434;50.956;6.918;2023-04-25T00:01:15;100545.16;;;6.40;77.49
49473;BME280;67434;50.956;6.918;2023-04-25T00:03:40;100549.34;;;6.48;77.20
49473;BME280;67434;50.956;6.918;2023-04-25T00:06:06;100544.91;;;6.53;77.06
49473;BME280;67434;50.956;6.918;2023-04-25T00:08:31;100544.19;;;6.58;76.23
49473;BME280;67434;50.956;6.918;2023-04-25T00:10:57;100545.03;;;6.47;76.90
49473;BME280;67434;50.956;6.918;2023-04-25T00:13:22;100538.84;;;6.46;76.87
49473;BME280;67434;50.956;6.918;2023-04-25T00:15:48;100536.41;;;6.45;76.40
49473;BME280;67434;50.956;6.918;2023-04-25T00:18:14;100545.41;;;6.39;76.44
49473;BME280;67434;50.956;6.918;2023-04-25T00:20:42;100543.41;;;6.34;76.76
49473;BME280;67434;50.956;6.918;2023-04-25T00:23:11;100543.66;;;6.33;76.36
49473;BME280;67434;50.956;6.918;2023-04-25T00:25:36;100543.97;;;6.24;76.94
49473;BME280;67434;50.956;6.918;2023-04-25T00:28:04;100547.00;;;6.16;77.61
49473;BME280;67434;50.956;6.918;2023-04-25T00:30:29;100547.94;;;6.10;77.64
49473;BME280;67434;50.956;6.918;2023-04-25T00:32:55;100546.06;;;6.11;77.78
49473;BME280;67434;50.956;6.918;2023-04-25T00:35:29;100545.91;;;5.94;78.36
49473;BME280;67434;50.956;6.918;2023-04-25T00:37:54;100552.25;;;6.00;78.11
49473;BME280;67434;50.956;6.918;2023-04-25T00:40:20;100548.16;;;5.97;78.44
49473;BME280;67434;50.956;6.918;2023-04-25T00:42:52;100551.06;;;5.95;78.24
49473;BME280;67434;50.956;6.918;2023-04-25T00:45:17;100543.31;;;5.87;78.67
49473;BME280;67434;50.956;6.918;2023-04-25T00:47:43;100541.69;;;5.86;78.28
49473;BME280;67434;50.956;6.918;2023-04-25T00:50:08;100543.41;;;5.81;78.76
49473;BME280;67434;50.956;6.918;2023-04-25T00:52:34;100542.25;;;5.77;79.24
49473;BME280;67434;50.956;6.918;2023-04-25T00:55:00;100533.72;;;5.68;79.46
49473;BME280;67434;50.956;6.918;2023-04-25T00:57:25;100534.59;;;5.50;80.22
49473;BME280;67434;50.956;6.918;2023-04-25T00:59:51;100541.31;;;5.41;80.63
49473;BME280;67434;50.956;6.918;2023-04-25T01:02:17;100541.69;;;5.45;80.68
49473;BME280;67434;50.956;6.918;2023-04-25T01:04:43;100541.09;;;5.43;80.91
49473;BME280;67434;50.956;6.918;2023-04-25T01:07:09;100541.06;;;5.31;81.27
49473;BME280;67434;50.956;6.918;2023-04-25T01:09:35;100550.06;;;5.18;82.10
49473;BME280;67434;50.956;6.918;2023-04-25T01:12:00;100557.88;;;5.20;81.84
49473;BME280;67434;50.956;6.918;2023-04-25T01:14:26;100556.09;;;5.14;82.16
49473;BME280;67434;50.956;6.918;2023-04-25T01:16:51;100557.00;;;5.08;82.85
49473;BME280;67434;50.956;6.918;2023-04-25T01:19:18;100561.78;;;5.06;82.98
49473;BME280;67434;50.956;6.918;2023-04-25T01:21:50;100555.69;;;4.98;82.90
49473;BME280;67434;50.956;6.918;2023-04-25T01:24:15;100557.31;;;4.99;83.49
49473;BME280;67434;50.956;6.918;2023-04-25T01:26:41;100553.97;;;5.04;83.13
49473;BME280;67434;50.956;6.918;2023-04-25T01:29:17;100557.69;;;5.03;82.94
49473;BME280;67434;50.956;6.918;2023-04-25T01:31:43;100555.81;;;5.22;81.88
49473;BME280;67434;50.956;6.918;2023-04-25T01:34:09;100552.97;;;5.17;82.45
49473;BME280;67434;50.956;6.918;2023-04-25T01:36:34;100551.41;;;5.09;82.85
49473;BME280;67434;50.956;6.918;2023-04-25T01:39:00;100561.78;;;5.06;82.58
49473;BME280;67434;50.956;6.918;2023-04-25T01:41:25;100561.91;;;5.11;82.71
49473;BME280;67434;50.956;6.918;2023-04-25T01:44:10;100566.53;;;5.03;82.89
49473;BME280;67434;50.956;6.918;2023-04-25T01:46:35;100572.94;;;5.02;82.81
49473;BME280;67434;50.956;6.918;2023-04-25T01:49:00;100571.84;;;4.92;83.03
49473;BME280;67434;50.956;6.918;2023-04-25T01:51:26;100571.91;;;5.22;81.87
49473;BME280;67434;50.956;6.918;2023-04-25T01:53:51;100574.81;;;5.20;81.74
49473;BME280;67434;50.956;6.918;2023-04-25T01:56:17;100567.34;;;5.22;81.72
49473;BME280;67434;50.956;6.918;2023-04-25T01:58:42;100573.94;;;5.20;81.61
49473;BME280;67434;50.956;6.918;2023-04-25T02:01:08;100570.78;;;5.11;81.68
49473;BME280;67434;50.956;6.918;2023-04-25T02:03:34;100575.16;;;5.06;82.03
49473;BME280;67434;50.956;6.918;2023-04-25T02:05:59;100576.66;;;5.01;82.55
49473;BME280;67434;50.956;6.918;2023-04-25T02:08:25;100565.50;;;5.05;82.01
49473;BME280;67434;50.956;6.918;2023-04-25T02:10:51;100568.53;;;5.08;81.87
49473;BME280;67434;50.956;6.918;2023-04-25T02:13:17;100573.66;;;5.10;81.93
49473;BME280;67434;50.956;6.918;2023-04-25T02:15:42;100574.13;;;5.07;81.72
49473;BME280;67434;50.956;6.918;2023-04-25T02:18:07;100580.06;;;5.09;81.78
49473;BME280;67434;50.956;6.918;2023-04-25T02:20:32;100575.81;;;5.19;81.59
49473;BME280;67434;50.956;6.918;2023-04-25T02:22:58;100574.56;;;5.22;81.37
49473;BME280;67434;50.956;6.918;2023-04-25T02:25:23;100572.50;;;5.24;81.64
49473;BME280;67434;50.956;6.918;2023-04-25T02:27:48;100570.91;;;5.34;80.68
49473;BME280;67434;50.956;6.918;2023-04-25T02:30:14;100564.84;;;5.39;80.53
49473;BME280;67434;50.956;6.918;2023-04-25T02:32:39;100564.84;;;5.39;80.64
49473;BME280;67434;50.956;6.918;2023-04-25T02:35:05;100564.72;;;5.34;81.00
49473;BME280;67434;50.956;6.918;2023-04-25T02:37:32;100562.53;;;5.43;80.74
49473;BME280;67434;50.956;6.918;2023-04-25T02:39:57;100566.97;;;5.49;80.31
49473;BME280;67434;50.956;6.918;2023-04-25T02:42:23;100559.81;;;5.61;79.54
49473;BME280;67434;50.956;6.918;2023-04-25T02:44:48;100567.03;;;5.60;79.84
49473;BME280;67434;50.956;6.918;2023-04-25T02:47:13;100570.16;;;5.57;79.54
49473;BME280;67434;50.956;6.918;2023-04-25T02:49:45;100560.94;;;5.53;79.34
49473;BME280;67434;50.956;6.918;2023-04-25T02:52:10;100563.72;;;5.47;80.19
49473;BME280;67434;50.956;6.918;2023-04-25T02:54:35;100569.91;;;5.47;80.10
49473;BME280;67434;50.956;6.918;2023-04-25T02:57:10;100573.53;;;5.53;79.59
49473;BME280;67434;50.956;6.918;2023-04-25T02:59:35;100570.16;;;5.57;79.39
49473;BME280;67434;50.956;6.918;2023-04-25T03:02:00;100570.78;;;5.59;79.04
49473;BME280;67434;50.956;6.918;2023-04-25T03:04:30;100576.72;;;5.61;79.24
49473;BME280;67434;50.956;6.918;2023-04-25T03:06:55;100570.53;;;5.61;79.48
49473;BME280;67434;50.956;6.918;2023-04-25T03:09:20;100571.19;;;5.56;79.87
49473;BME280;67434;50.956;6.918;2023-04-25T03:11:46;100568.53;;;5.56;80.00
49473;BME280;67434;50.956;6.918;2023-04-25T03:14:11;100578.00;;;5.59;79.85
49473;BME280;67434;50.956;6.918;2023-04-25T03:16:36;100575.97;;;5.54;80.31
49473;BME280;67434;50.956;6.918;2023-04-25T03:19:02;100574.28;;;5.60;80.53
49473;BME280;67434;50.956;6.918;2023-04-25T03:21:27;100573.59;;;5.64;80.73
49473;BME280;67434;50.956;6.918;2023-04-25T03:23:53;100575.69;;;5.62;80.42
49473;BME280;67434;50.956;6.918;2023-04-25T03:26:18;100581.63;;;5.64;80.45
49473;BME280;67434;50.956;6.918;2023-04-25T03:28:44;100571.63;;;5.72;80.33
49473;BME280;67434;50.956;6.918;2023-04-25T03:31:09;100572.41;;;5.60;80.78
49473;BME280;67434;50.956;6.918;2023-04-25T03:33:34;100572.03;;;5.57;80.98
49473;BME280;67434;50.956;6.918;2023-04-25T03:35:59;100568.47;;;5.63;80.74
49473;BME280;67434;50.956;6.918;2023-04-25T03:38:25;100573.81;;;5.63;81.06
49473;BME280;67434;50.956;6.918;2023-04-25T03:40:51;100575.91;;;5.61;80.86
49473;BME280;67434;50.956;6.918;2023-04-25T03:43:17;100584.44;;;5.70;80.70
49473;BME280;67434;50.956;6.918;2023-04-25T03:45:43;100574.31;;;5.72;80.80
49473;BME280;67434;50.956;6.918;2023-04-25T03:48:08;100576.16;;;5.71;80.89
49473;BME280;67434;50.956;6.918;2023-04-25T03:50:33;100573.63;;;5.76;80.82
49473;BME280;67434;50.956;6.918;2023-04-25T03:52:58;100572.94;;;5.81;80.65
49473;BME280;67434;50.956;6.918;2023-04-25T03:55:24;100578.28;;;5.81;80.78
49473;BME280;67434;50.956;6.918;2023-04-25T03:57:49;100582.84;;;5.80;80.74
49473;BME280;67434;50.956;6.918;2023-04-25T04:00:17;100582.34;;;5.72;81.19
49473;BME280;67434;50.956;6.918;2023-04-25T04:02:42;100588.53;;;5.72;81.17
49473;BME280;67434;50.956;6.918;2023-04-25T04:05:07;100582.72;;;5.75;80.57
49473;BME280;67434;50.956;6.918;2023-04-25T04:07:40;100590.75;;;5.75;80.93
49473;BME280;67434;50.956;6.918;2023-04-25T04:10:07;100591.69;;;5.81;80.62
49473;BME280;67434;50.956;6.918;2023-04-25T04:12:33;100596.25;;;5.80;80.59
49473;BME280;67434;50.956;6.918;2023-04-25T04:14:59;100601.59;;;5.80;80.54
49473;BME280;67434;50.956;6.918;2023-04-25T04:17:24;100605.16;;;5.92;80.06
49473;BME280;67434;50.956;6.918;2023-04-25T04:19:50;100605.25;;;5.86;80.16
49473;BME280;67434;50.956;6.918;2023-04-25T04:22:22;100603.84;;;5.83;80.58
49473;BME280;67434;50.956;6.918;2023-04-25T04:24:47;100606.88;;;5.87;80.46
49473;BME280;67434;50.956;6.918;2023-04-25T04:27:12;100597.34;;;5.91;80.44
49473;BME280;67434;50.956;6.918;2023-04-25T04:29:40;100605.16;;;5.92;80.14
49473;BME280;67434;50.956;6.918;2023-04-25T04:32:06;100608.91;;;5.91;80.31
49473;BME280;67434;50.956;6.918;2023-04-25T04:34:33;100622.09;;;5.93;80.34
49473;BME280;67434;50.956;6.918;2023-04-25T04:37:00;100623.13;;;5.92;80.32
49473;BME280;67434;50.956;6.918;2023-04-25T04:39:25;100617.34;;;5.95;80.04
49473;BME280;67434;50.956;6.918;2023-04-25T04:41:51;100624.19;;;5.91;80.47
49473;BME280;67434;50.956;6.918;2023-04-25T04:44:16;100625.81;;;5.92;80.51
49473;BME280;67434;50.956;6.918;2023-04-25T04:46:41;100631.19;;;5.92;80.38
49473;BME280;67434;50.956;6.918;2023-04-25T04:49:10;100634.09;;;5.90;80.62
49473;BME280;67434;50.956;6.918;2023-04-25T04:51:36;100636.84;;;6.02;80.17
49473;BME280;67434;50.956;6.918;2023-04-25T04:54:02;100641.47;;;5.95;80.72
49473;BME280;67434;50.956;6.918;2023-04-25T04:56:28;100643.59;;;6.05;79.95
49473;BME280;67434;50.956;6.918;2023-04-25T04:58:54;100645.69;;;6.03;80.20
49473;BME280;67434;50.956;6.918;2023-04-25T05:01:19;100638.47;;;6.03;79.89
49473;BME280;67434;50.956;6.918;2023-04-25T05:03:45;100657.50;;;6.13;79.91
49473;BME280;67434;50.956;6.918;2023-04-25T05:06:10;100655.41;;;6.15;79.64
49473;BME280;67434;50.956;6.918;2023-04-25T05:08:36;100664.63;;;6.19;79.48
49473;BME280;67434;50.956;6.918;2023-04-25T05:11:01;100665.81;;;6.23;79.31
49473;BME280;67434;50.956;6.918;2023-04-25T05:13:26;100674.44;;;6.25;79.32
49473;BME280;67434;50.956;6.918;2023-04-25T05:15:52;100670.47;;;6.28;79.20
49473;BME280;67434;50.956;6.918;2023-04-25T05:18:17;100658.34;;;6.25;78.97
49473;BME280;67434;50.956;6.918;2023-04-25T05:20:42;100672.13;;;6.29;78.65
49473;BME280;67434;50.956;6.918;2023-04-25T05:23:08;100673.63;;;6.25;78.63
49473;BME280;67434;50.956;6.918;2023-04-25T05:25:33;100676.03;;;6.45;78.22
49473;BME280;67434;50.956;6.918;2023-04-25T05:27:58;100679.31;;;6.58;78.02
49473;BME280;67434;50.956;6.918;2023-04-25T05:30:24;100684.31;;;6.55;77.80
49473;BME280;67434;50.956;6.918;2023-04-25T05:32:49;100686.13;;;6.73;77.14
49473;BME280;67434;50.956;6.918;2023-04-25T05:35:15;100681.41;;;6.68;77.30
49473;BME280;67434;50.956;6.918;2023-04-25T05:37:40;100687.97;;;6.84;76.61
49473;BME280;67434;50.956;6.918;2023-04-25T05:40:07;100695.81;;;6.85;76.98
49473;BME280;67434;50.956;6.918;2023-04-25T05:42:34;100703.03;;;6.97;76.60
49473;BME280;67434;50.956;6.918;2023-04-25T05:44:59;100698.75;;;7.07;76.10
49473;BME280;67434;50.956;6.918;2023-04-25T05:47:24;100701.75;;;6.99;76.42
49473;BME280;67434;50.956;6.918;2023-04-25T05:49:49;100707.16;;;7.11;75.74
49473;BME280;67434;50.956;6.918;2023-04-25T05:52:24;100699.09;;;7.11;75.32
49473;BME280;67434;50.956;6.918;2023-04-25T05:54:50;100704.44;;;7.22;74.94
49473;BME280;67434;50.956;6.918;2023-04-25T05:57:33;100706.06;;;7.35;74.73
49473;BME280;67434;50.956;6.918;2023-04-25T05:59:58;100707.00;;;7.29;74.05
49473;BME280;67434;50.956;6.918;2023-04-25T06:02:24;100709.81;;;7.34;74.28
49473;BME280;67434;50.956;6.918;2023-04-25T06:04:49;100710.66;;;7.11;74.18
49473;BME280;67434;50.956;6.918;2023-04-25T06:07:15;100718.00;;;7.16;73.71
49473;BME280;67434;50.956;6.918;2023-04-25T06:09:40;100716.03;;;7.11;74.18
49473;BME280;67434;50.956;6.918;2023-04-25T06:12:05;100720.22;;;7.19;74.02
49473;BME280;67434;50.956;6.918;2023-04-25T06:14:31;100721.97;;;7.25;73.57
49473;BME280;67434;50.956;6.918;2023-04-25T06:16:56;100726.84;;;7.40;73.12
49473;BME280;67434;50.956;6.918;2023-04-25T06:19:22;100720.47;;;7.81;72.31
49473;BME280;67434;50.956;6.918;2023-04-25T06:21:47;100720.56;;;8.14;70.42
49473;BME280;67434;50.956;6.918;2023-04-25T06:24:12;100725.44;;;8.29;69.92
49473;BME280;67434;50.956;6.918;2023-04-25T06:26:37;100721.34;;;8.55;68.98
49473;BME280;67434;50.956;6.918;2023-04-25T06:29:02;100722.66;;;8.69;68.35
49473;BME280;67434;50.956;6.918;2023-04-25T06:31:28;100721.03;;;8.68;68.45
49473;BME280;67434;50.956;6.918;2023-04-25T06:33:58;100726.09;;;8.65;67.83
49473;BME280;67434;50.956;6.918;2023-04-25T06:36:23;100721.78;;;8.35;68.39
49473;BME280;67434;50.956;6.918;2023-04-25T06:38:52;100725.25;;;8.48;67.59
49473;BME280;67434;50.956;6.918;2023-04-25T06:41:17;100724.75;;;8.34;68.46
49473;BME280;67434;50.956;6.918;2023-04-25T06:43:43;100730.22;;;8.39;67.84
49473;BME280;67434;50.956;6.918;2023-04-25T06:46:08;100730.16;;;8.22;68.29
49473;BME280;67434;50.956;6.918;2023-04-25T06:48:33;100725.25;;;8.19;68.07
49473;BME280;67434;50.956;6.918;2023-04-25T06:50:59;100726.31;;;8.18;67.52
49473;BME280;67434;50.956;6.918;2023-04-25T06:53:24;100733.38;;;8.36;67.72
49473;BME280;67434;50.956;6.918;2023-04-25T06:55:49;100733.75;;;8.56;66.64
49473;BME280;67434;50.956;6.918;2023-04-25T06:58:15;100732.03;;;8.67;66.68
49473;BME280;67434;50.956;6.918;2023-04-25T07:00:40;100737.69;;;8.99;65.11
49473;BME280;67434;50.956;6.918;2023-04-25T07:03:12;100737.34;;;9.12;64.29
49473;BME280;67434;50.956;6.918;2023-04-25T07:05:37;100743.72;;;9.06;64.53
49473;BME280;67434;50.956;6.918;2023-04-25T07:08:03;100753.19;;;8.58;66.09
49473;BME280;67434;50.956;6.918;2023-04-25T07:10:29;100752.72;;;8.61;65.41
49473;BME280;67434;50.956;6.918;2023-04-25T07:12:54;100755.19;;;8.51;65.55
49473;BME280;67434;50.956;6.918;2023-04-25T07:15:20;100759.94;;;8.44;64.76
49473;BME280;67434;50.956;6.918;2023-04-25T07:17:45;100758.47;;;8.25;65.56
49473;BME280;67434;50.956;6.918;2023-04-25T07:20:11;100768.09;;;8.49;64.84
49473;BME280;67434;50.956;6.918;2023-04-25T07:22:36;100764.31;;;8.33;64.96
49473;BME280;67434;50.956;6.918;2023-04-25T07:25:02;100766.44;;;8.76;65.05
49473;BME280;67434;50.956;6.918;2023-04-25T07:27:29;100767.72;;;9.24;62.53
49473;BME280;67434;50.956;6.918;2023-04-25T07:29:54;100778.38;;;9.14;62.13
49473;BME280;67434;50.956;6.918;2023-04-25T07:32:22;100775.09;;;8.78;62.34
49473;BME280;67434;50.956;6.918;2023-04-25T07:34:47;100767.38;;;8.54;63.77
49473;BME280;67434;50.956;6.918;2023-04-25T07:37:13;100769.97;;;8.49;63.56
49473;BME280;67434;50.956;6.918;2023-04-25T07:39:39;100770.78;;;8.49;64.37
49473;BME280;67434;50.956;6.918;2023-04-25T07:42:04;100769.22;;;8.82;63.90
49473;BME280;67434;50.956;6.918;2023-04-25T07:44:31;100773.28;;;9.18;61.41
49473;BME280;67434;50.956;6.918;2023-04-25T07:46:56;100781.88;;;9.15;61.01
49473;BME280;67434;50.956;6.918;2023-04-25T07:49:22;100781.56;;;9.11;61.61
49473;BME280;67434;50.956;6.918;2023-04-25T07:51:47;100789.63;;;9.28;60.88
49473;BME280;67434;50.956;6.918;2023-04-25T07:54:13;100779.16;;;9.48;59.86
49473;BME280;67434;50.956;6.918;2023-04-25T07:56:39;100775.75;;;9.58;59.30
49473;BME280;67434;50.956;6.918;2023-04-25T07:59:04;100786.28;;;9.37;60.11
49473;BME280;67434;50.956;6.918;2023-04-25T08:01:30;100781.94;;;9.75;59.83
49473;BME280;67434;50.956;6.918;2023-04-25T08:03:55;100792.81;;;10.02;59.11
49473;BME280;67434;50.956;6.918;2023-04-25T08:06:20;100792.88;;;10.07;58.52
49473;BME280;67434;50.956;6.918;2023-04-25T08:08:49;100794.56;;;10.35;57.86
49473;BME280;67434;50.956;6.918;2023-04-25T08:11:14;100798.03;;;10.30;58.10
49473;BME280;67434;50.956;6.918;2023-04-25T08:13:40;100808.78;;;10.25;56.85
49473;BME280;67434;50.956;6.918;2023-04-25T08:16:06;100812.84;;;9.84;58.21
49473;BME280;67434;50.956;6.918;2023-04-25T08:18:31;100821.69;;;9.41;58.23
49473;BME280;67434;50.956;6.918;2023-04-25T08:20:56;100818.31;;;9.17;59.37
49473;BME280;67434;50.956;6.918;2023-04-25T08:23:22;100816.22;;;9.36;57.76
49473;BME280;67434;50.956;6.918;2023-04-25T08:25:47;100825.50;;;9.28;57.20
49473;BME280;67434;50.956;6.918;2023-04-25T08:28:12;100829.03;;;9.29;57.76
49473;BME280;67434;50.956;6.918;2023-04-25T08:30:38;100829.56;;;9.64;57.66
49473;BME280;67434;50.956;6.918;2023-04-25T08:33:03;100827.09;;;9.63;57.85
49473;BME280;67434;50.956;6.918;2023-04-25T08:35:30;100831.44;;;9.81;56.82
49473;BME280;67434;50.956;6.918;2023-04-25T08:37:55;100832.44;;;9.96;56.31
49473;BME280;67434;50.956;6.918;2023-04-25T08:40:22;100832.72;;;10.39;55.26
49473;BME280;67434;50.956;6.918;2023-04-25T08:42:51;100843.38;;;10.07;54.69
49473;BME280;67434;50.956;6.918;2023-04-25T08:45:17;100848.31;;;9.54;56.34
49473;BME280;67434;50.956;6.918;2023-04-25T08:47:42;100861.88;;;9.59;56.01
49473;BME280;67434;50.956;6.918;2023-04-25T08:50:09;100867.13;;;9.32;56.86
49473;BME280;67434;50.956;6.918;2023-04-25T08:52:36;100861.91;;;9.43;57.24
49473;BME280;67434;50.956;6.918;2023-04-25T08:55:02;100869.66;;;9.56;56.69
49473;BME280;67434;50.956;6.918;2023-04-25T08:57:28;100863.00;;;9.80;55.88
49473;BME280;67434;50.956;6.918;2023-04-25T08:59:54;100867.75;;;9.73;53.83
49473;BME280;67434;50.956;6.918;2023-04-25T09:02:20;100873.66;;;9.53;55.05
49473;BME280;67434;50.956;6.918;2023-04-25T09:04:46;100888.88;;;9.76;55.29
49473;BME280;67434;50.956;6.918;2023-04-25T09:07:11;100892.22;;;9.50;54.75
49473;BME280;67434;50.956;6.918;2023-04-25T09:09:36;100886.47;;;9.13;56.02
49473;BME280;67434;50.956;6.918;2023-04-25T09:12:02;100891.31;;;9.61;55.35
49473;BME280;67434;50.956;6.918;2023-04-25T09:14:27;100887.81;;;9.99;53.84
49473;BME280;67434;50.956;6.918;2023-04-25T09:19:22;100897.31;;;10.01;54.21
49473;BME280;67434;50.956;6.918;2023-04-25T09:21:51;100892.34;;;9.93;53.21
49473;BME280;67434;50.956;6.918;2023-04-25T09:26:56;100910.22;;;10.16;52.88
49473;BME280;67434;50.956;6.918;2023-04-25T09:29:28;100911.88;;;10.39;52.34
49473;BME280;67434;50.956;6.918;2023-04-25T09:31:54;100908.78;;;10.74;51.45
49473;BME280;67434;50.956;6.918;2023-04-25T09:34:42;100906.78;;;10.86;48.52
49473;BME280;67434;50.956;6.918;2023-04-25T09:37:10;100903.72;;;10.56;49.85
49473;BME280;67434;50.956;6.918;2023-04-25T09:39:38;100909.97;;;10.56;50.29
49473;BME280;67434;50.956;6.918;2023-04-25T09:42:03;100912.59;;;10.13;49.28
49473;BME280;67434;50.956;6.918;2023-04-25T09:44:29;100905.28;;;9.91;50.42
49473;BME280;67434;50.956;6.918;2023-04-25T09:46:54;100916.69;;;9.77;50.53
49473;BME280;67434;50.956;6.918;2023-04-25T09:49:20;100920.03;;;9.67;50.87
49473;BME280;67434;50.956;6.918;2023-04-25T09:51:55;100918.78;;;9.91;51.20
49473;BME280;67434;50.956;6.918;2023-04-25T09:54:21;100928.09;;;10.39;50.12
49473;BME280;67434;50.956;6.918;2023-04-25T09:56:46;100922.88;;;10.32;51.11
49473;BME280;67434;50.956;6.918;2023-04-25T09:59:13;100918.75;;;10.47;50.61
49473;BME280;67434;50.956;6.918;2023-04-25T10:01:39;100922.00;;;10.27;50.75
49473;BME280;67434;50.956;6.918;2023-04-25T10:04:05;100931.56;;;9.79;51.45
49473;BME280;67434;50.956;6.918;2023-04-25T10:06:31;100929.50;;;9.53;52.11
49473;BME280;67434;50.956;6.918;2023-04-25T10:08:58;100935.94;;;9.18;53.18
49473;BME280;67434;50.956;6.918;2023-04-25T10:11:24;100936.47;;;9.32;53.71
49473;BME280;67434;50.956;6.918;2023-04-25T10:13:51;100948.78;;;9.28;53.46
49473;BME280;67434;50.956;6.918;2023-04-25T10:16:17;100955.44;;;9.37;53.16
49473;BME280;67434;50.956;6.918;2023-04-25T10:18:42;100945.63;;;9.64;51.69
49473;BME280;67434;50.956;6.918;2023-04-25T10:21:08;100963.44;;;9.65;51.37
49473;BME280;67434;50.956;6.918;2023-04-25T10:23:33;100957.41;;;9.92;51.20
49473;BME280;67434;50.956;6.918;2023-04-25T10:26:00;100951.25;;;9.96;50.93
49473;BME280;67434;50.956;6.918;2023-04-25T10:28:25;100967.38;;;10.08;50.04
49473;BME280;67434;50.956;6.918;2023-04-25T10:31:00;100966.63;;;10.13;50.54
49473;BME280;67434;50.956;6.918;2023-04-25T10:33:32;100964.94;;;9.90;50.70
49473;BME280;67434;50.956;6.918;2023-04-25T10:35:58;100967.69;;;10.12;50.22
49473;BME280;67434;50.956;6.918;2023-04-25T10:38:23;100964.91;;;10.23;49.68
49473;BME280;67434;50.956;6.918;2023-04-25T10:41:02;100969.66;;;10.77;48.44
49473;BME280;67434;50.956;6.918;2023-04-25T10:45:56;100960.25;;;10.57;47.23
49473;BME280;67434;50.956;6.918;2023-04-25T10:48:28;100962.75;;;10.42;47.60
49473;BME280;67434;50.956;6.918;2023-04-25T10:51:09;100956.63;;;10.30;47.41
49473;BME280;67434;50.956;6.918;2023-04-25T10:53:35;100963.44;;;10.16;48.66
49473;BME280;67434;50.956;6.918;2023-04-25T10:56:09;100962.47;;;9.88;48.08
49473;BME280;67434;50.956;6.918;2023-04-25T10:58:34;100968.69;;;9.89;47.99
49473;BME280;67434;50.956;6.918;2023-04-25T11:01:00;100974.25;;;9.82;49.86
49473;BME280;67434;50.956;6.918;2023-04-25T11:03:26;100957.06;;;9.88;49.97
49473;BME280;67434;50.956;6.918;2023-04-25T11:05:53;100967.47;;;9.96;50.46
49473;BME280;67434;50.956;6.918;2023-04-25T11:08:20;100960.72;;;10.32;50.06
49473;BME280;67434;50.956;6.918;2023-04-25T11:10:50;100965.22;;;10.65;49.46
49473;BME280;67434;50.956;6.918;2023-04-25T11:13:20;100966.03;;;10.88;49.04
49473;BME280;67434;50.956;6.918;2023-04-25T11:15:45;100959.31;;;11.17;49.06
49473;BME280;67434;50.956;6.918;2023-04-25T11:18:15;100960.69;;;11.79;46.52
49473;BME280;67434;50.956;6.918;2023-04-25T11:20:42;100960.97;;;12.19;44.89
49473;BME280;67434;50.956;6.918;2023-04-25T11:23:08;100963.75;;;11.87;45.29
49473;BME280;67434;50.956;6.918;2023-04-25T11:25:33;100962.38;;;11.85;43.67
49473;BME280;67434;50.956;6.918;2023-04-25T11:27:59;100965.75;;;11.38;44.34
49473;BME280;67434;50.956;6.918;2023-04-25T11:30:26;100963.69;;;11.50;45.32
49473;BME280;67434;50.956;6.918;2023-04-25T11:32:52;100966.47;;;11.55;44.54
49473;BME280;67434;50.956;6.918;2023-04-25T11:35:18;100966.03;;;11.42;45.00
49473;BME280;67434;50.956;6.918;2023-04-25T11:37:43;100969.59;;;11.47;44.67
49473;BME280;67434;50.956;6.918;2023-04-25T11:40:09;100958.72;;;11.69;44.24
49473;BME280;67434;50.956;6.918;2023-04-25T11:42:38;100965.00;;;12.12;43.86
49473;BME280;67434;50.956;6.918;2023-04-25T11:45:04;100960.69;;;12.16;43.55
49473;BME280;67434;50.956;6.918;2023-04-25T11:47:31;100968.66;;;11.32;41.29
49473;BME280;67434;50.956;6.918;2023-04-25T11:50:00;100951.22;;;11.17;41.98
49473;BME280;67434;50.956;6.918;2023-04-25T11:52:36;100964.91;;;10.84;42.77
49473;BME280;67434;50.956;6.918;2023-04-25T11:55:03;100964.19;;;10.72;43.65
49473;BME280;67434;50.956;6.918;2023-04-25T11:57:30;100967.72;;;10.72;43.52
49473;BME280;67434;50.956;6.918;2023-04-25T11:59:56;100964.59;;;10.80;43.82
49473;BME280;67434;50.956;6.918;2023-04-25T12:02:30;100961.44;;;10.88;43.73
49473;BME280;67434;50.956;6.918;2023-04-25T12:04:59;100956.63;;;11.17;42.92
49473;BME280;67434;50.956;6.918;2023-04-25T12:07:28;100956.19;;;11.31;43.22
49473;BME280;67434;50.956;6.918;2023-04-25T12:09:53;100949.63;;;11.21;42.10
49473;BME280;67434;50.956;6.918;2023-04-25T12:12:19;100972.53;;;11.73;41.11
49473;BME280;67434;50.956;6.918;2023-04-25T12:14:46;100957.88;;;11.96;39.64
49473;BME280;67434;50.956;6.918;2023-04-25T12:17:12;100955.53;;;12.14;38.24
49473;BME280;67434;50.956;6.918;2023-04-25T12:19:39;100969.41;;;12.23;37.42
49473;BME280;67434;50.956;6.918;2023-04-25T12:22:18;100973.88;;;12.44;37.65
49473;BME280;67434;50.956;6.918;2023-04-25T12:24:44;100982.13;;;12.70;36.22
49473;BME280;67434;50.956;6.918;2023-04-25T12:27:09;100984.88;;;12.80;36.04
49473;BME280;67434;50.956;6.918;2023-04-25T12:29:35;100971.59;;;12.26;37.03
49473;BME280;67434;50.956;6.918;2023-04-25T12:32:00;100993.31;;;12.31;36.97
49473;BME280;67434;50.956;6.918;2023-04-25T12:34:28;100973.59;;;11.99;38.68
49473;BME280;67434;50.956;6.918;2023-04-25T12:36:54;100989.91;;;12.09;38.92
49473;BME280;67434;50.956;6.918;2023-04-25T12:39:20;100981.28;;;12.17;38.87
49473;BME280;67434;50.956;6.918;2023-04-25T12:41:46;100972.75;;;11.93;39.16
49473;BME280;67434;50.956;6.918;2023-04-25T12:44:12;100987.16;;;11.72;40.36
49473;BME280;67434;50.956;6.918;2023-04-25T12:46:39;100997.97;;;11.99;40.08
49473;BME280;67434;50.956;6.918;2023-04-25T12:49:05;101004.81;;;12.06;40.00
49473;BME280;67434;50.956;6.918;2023-04-25T12:51:32;100991.91;;;11.86;39.63
49473;BME280;67434;50.956;6.918;2023-04-25T12:54:04;100993.19;;;11.79;40.22
49473;BME280;67434;50.956;6.918;2023-04-25T12:56:30;101004.69;;;11.64;41.41
49473;BME280;67434;50.956;6.918;2023-04-25T12:58:56;101021.16;;;11.31;41.61
49473;BME280;67434;50.956;6.918;2023-04-25T13:01:21;101009.78;;;11.07;42.80